sensor_id;sensor_type;location;lat;lon;timestamp;P1;durP1;ratioP1;P2;durP2;ratioP2
6354;SDS011;3210;48.708;9.030;2024-01-27T00:07:35;6.70;;;1.90;;
6354;SDS011;3210;48.708;9.030;2024-01-27T00:10:05;5.27;;;2.13;;
6354;SDS011;3210;48.708;9.030;2024-01-27T00:12:51;6.43;;;2.40;;
6354;SDS011;3210;48.708;9.030;2024-01-27T00:15:40;3.70;;;1.57;;
6354;SDS011;3210;48.708;9.030;2024-01-27T00:18:22;3.27;;;2.47;;
6354;SDS011;3210;48.708;9.030;2024-01-27T00:21:09;6.20;;;1.90;;
6354;SDS011;3210;48.708;9.030;2024-01-27T00:23:48;2.90;;;1.67;;
6354;SDS011;3210;48.708;9.030;2024-01-27T00:26:16;3.17;;;2.13;;
6354;SDS011;3210;48.708;9.030;2024-01-27T00:28:43;2.60;;;1.47;;
6354;SDS011;3210;48.708;9.030;2024-01-27T00:31:11;1.70;;;1.53;;
6354;SDS011;3210;48.708;9.030;2024-01-27T00:33:38;2.00;;;1.80;;
6354;SDS011;3210;48.708;9.030;2024-01-27T00:36:06;2.47;;;2.13;;
6354;SDS011;3210;48.708;9.030;2024-01-27T00:38:33;1.70;;;1.60;;
6354;SDS011;3210;48.708;9.030;2024-01-27T00:41:02;6.23;;;1.90;;
6354;SDS011;3210;48.708;9.030;2024-01-27T00:43:29;2.17;;;1.77;;
6354;SDS011;3210;48.708;9.030;2024-01-27T00:45:57;3.63;;;1.53;;
6354;SDS011;3210;48.708;9.030;2024-01-27T00:48:24;4.83;;;1.50;;
6354;SDS011;3210;48.708;9.030;2024-01-27T00:51:10;4.20;;;1.40;;
6354;SDS011;3210;48.708;9.030;2024-01-27T00:53:54;2.70;;;1.80;;
6354;SDS011;3210;48.708;9.030;2024-01-27T00:56:23;1.97;;;1.17;;
6354;SDS011;3210;48.708;9.030;2024-01-27T00:58:50;1.53;;;1.43;;
6354;SDS011;3210;48.708;9.030;2024-01-27T01:01:17;3.13;;;1.87;;
6354;SDS011;3210;48.708;9.030;2024-01-27T01:03:44;2.20;;;1.30;;
6354;SDS011;3210;48.708;9.030;2024-01-27T01:06:14;2.00;;;1.47;;
6354;SDS011;3210;48.708;9.030;2024-01-27T01:08:41;3.67;;;1.83;;
6354;SDS011;3210;48.708;9.030;2024-01-27T01:11:08;6.27;;;1.77;;
6354;SDS011;3210;48.708;9.030;2024-01-27T01:13:37;2.40;;;1.37;;
6354;SDS011;3210;48.708;9.030;2024-01-27T01:16:04;1.40;;;1.30;;
6354;SDS011;3210;48.708;9.030;2024-01-27T01:18:33;3.53;;;1.73;;
6354;SDS011;3210;48.708;9.030;2024-01-27T01:21:00;4.30;;;2.30;;
6354;SDS011;3210;48.708;9.030;2024-01-27T01:23:27;3.93;;;2.13;;
6354;SDS011;3210;48.708;9.030;2024-01-27T01:25:55;1.70;;;1.60;;
6354;SDS011;3210;48.708;9.030;2024-01-27T01:28:22;1.47;;;1.37;;
6354;SDS011;3210;48.708;9.030;2024-01-27T01:33:39;4.40;;;2.23;;
6354;SDS011;3210;48.708;9.030;2024-01-27T01:36:07;2.70;;;1.33;;
6354;SDS011;3210;48.708;9.030;2024-01-27T01:38:35;5.60;;;1.43;;
6354;SDS011;3210;48.708;9.030;2024-01-27T01:41:04;5.83;;;1.83;;
6354;SDS011;3210;48.708;9.030;2024-01-27T01:43:31;7.73;;;1.50;;
6354;SDS011;3210;48.708;9.030;2024-01-27T01:46:00;2.80;;;1.50;;
6354;SDS011;3210;48.708;9.030;2024-01-27T01:48:29;4.77;;;1.83;;
6354;SDS011;3210;48.708;9.030;2024-01-27T01:50:59;5.27;;;1.80;;
6354;SDS011;3210;48.708;9.030;2024-01-27T01:53:26;5.40;;;1.83;;
6354;SDS011;3210;48.708;9.030;2024-01-27T01:55:55;3.73;;;1.23;;
6354;SDS011;3210;48.708;9.030;2024-01-27T01:58:22;4.20;;;1.63;;
6354;SDS011;3210;48.708;9.030;2024-01-27T02:00:52;6.67;;;2.03;;
6354;SDS011;3210;48.708;9.030;2024-01-27T02:03:20;1.57;;;1.47;;
6354;SDS011;3210;48.708;9.030;2024-01-27T02:05:48;1.77;;;1.13;;
6354;SDS011;3210;48.708;9.030;2024-01-27T02:08:16;5.73;;;1.57;;
6354;SDS011;3210;48.708;9.030;2024-01-27T02:10:45;3.80;;;1.80;;
6354;SDS011;3210;48.708;9.030;2024-01-27T02:13:16;7.40;;;1.50;;
6354;SDS011;3210;48.708;9.030;2024-01-27T02:15:45;3.60;;;1.80;;
6354;SDS011;3210;48.708;9.030;2024-01-27T02:18:12;4.93;;;1.63;;
6354;SDS011;3210;48.708;9.030;2024-01-27T02:20:40;4.13;;;1.30;;
6354;SDS011;3210;48.708;9.030;2024-01-27T02:23:09;3.80;;;1.47;;
6354;SDS011;3210;48.708;9.030;2024-01-27T02:25:38;5.63;;;1.50;;
6354;SDS011;3210;48.708;9.030;2024-01-27T02:28:06;2.33;;;1.47;;
6354;SDS011;3210;48.708;9.030;2024-01-27T02:30:33;4.60;;;1.40;;
6354;SDS011;3210;48.708;9.030;2024-01-27T02:33:01;2.40;;;1.53;;
6354;SDS011;3210;48.708;9.030;2024-01-27T02:35:32;5.30;;;2.77;;
6354;SDS011;3210;48.708;9.030;2024-01-27T02:37:59;1.93;;;1.50;;
6354;SDS011;3210;48.708;9.030;2024-01-27T02:40:47;6.87;;;1.83;;
6354;SDS011;3210;48.708;9.030;2024-01-27T02:43:18;4.60;;;1.40;;
6354;SDS011;3210;48.708;9.030;2024-01-27T02:46:01;8.17;;;1.73;;
6354;SDS011;3210;48.708;9.030;2024-01-27T02:48:33;2.40;;;1.33;;
6354;SDS011;3210;48.708;9.030;2024-01-27T02:51:02;3.20;;;1.30;;
6354;SDS011;3210;48.708;9.030;2024-01-27T02:53:30;3.03;;;1.40;;
6354;SDS011;3210;48.708;9.030;2024-01-27T02:56:17;4.50;;;1.20;;
6354;SDS011;3210;48.708;9.030;2024-01-27T02:58:57;1.83;;;1.30;;
6354;SDS011;3210;48.708;9.030;2024-01-27T03:01:27;2.23;;;1.40;;
6354;SDS011;3210;48.708;9.030;2024-01-27T03:04:08;3.13;;;1.10;;
6354;SDS011;3210;48.708;9.030;2024-01-27T03:06:59;4.10;;;1.40;;
6354;SDS011;3210;48.708;9.030;2024-01-27T03:09:28;2.40;;;1.57;;
6354;SDS011;3210;48.708;9.030;2024-01-27T03:15:00;1.87;;;1.63;;
6354;SDS011;3210;48.708;9.030;2024-01-27T03:17:43;2.17;;;1.40;;
6354;SDS011;3210;48.708;9.030;2024-01-27T03:20:28;2.70;;;1.97;;
6354;SDS011;3210;48.708;9.030;2024-01-27T03:23:10;7.33;;;1.47;;
6354;SDS011;3210;48.708;9.030;2024-01-27T03:31:32;1.60;;;1.50;;
6354;SDS011;3210;48.708;9.030;2024-01-27T03:34:06;6.40;;;1.63;;
6354;SDS011;3210;48.708;9.030;2024-01-27T03:36:52;5.77;;;1.87;;
6354;SDS011;3210;48.708;9.030;2024-01-27T03:39:33;5.23;;;1.87;;
6354;SDS011;3210;48.708;9.030;2024-01-27T03:42:15;3.97;;;1.40;;
6354;SDS011;3210;48.708;9.030;2024-01-27T03:44:52;5.53;;;2.00;;
6354;SDS011;3210;48.708;9.030;2024-01-27T03:47:34;3.33;;;1.33;;
6354;SDS011;3210;48.708;9.030;2024-01-27T03:50:12;2.20;;;1.73;;
6354;SDS011;3210;48.708;9.030;2024-01-27T03:52:41;6.13;;;1.40;;
6354;SDS011;3210;48.708;9.030;2024-01-27T03:55:08;2.57;;;1.90;;
6354;SDS011;3210;48.708;9.030;2024-01-27T03:57:35;2.97;;;1.60;;
6354;SDS011;3210;48.708;9.030;2024-01-27T04:00:04;1.73;;;1.30;;
6354;SDS011;3210;48.708;9.030;2024-01-27T04:02:37;5.13;;;2.10;;
6354;SDS011;3210;48.708;9.030;2024-01-27T04:05:24;2.93;;;1.43;;
6354;SDS011;3210;48.708;9.030;2024-01-27T04:08:11;4.13;;;1.40;;
6354;SDS011;3210;48.708;9.030;2024-01-27T04:10:40;2.33;;;1.73;;
6354;SDS011;3210;48.708;9.030;2024-01-27T04:13:10;5.60;;;1.67;;
6354;SDS011;3210;48.708;9.030;2024-01-27T04:18:26;3.93;;;1.30;;
6354;SDS011;3210;48.708;9.030;2024-01-27T04:21:03;2.17;;;1.43;;
6354;SDS011;3210;48.708;9.030;2024-01-27T04:23:31;5.53;;;1.87;;
6354;SDS011;3210;48.708;9.030;2024-01-27T04:26:04;3.67;;;2.00;;
6354;SDS011;3210;48.708;9.030;2024-01-27T04:28:34;4.10;;;1.67;;
6354;SDS011;3210;48.708;9.030;2024-01-27T04:31:23;6.00;;;2.07;;
6354;SDS011;3210;48.708;9.030;2024-01-27T04:33:52;6.77;;;1.93;;
6354;SDS011;3210;48.708;9.030;2024-01-27T04:36:34;2.57;;;1.70;;
6354;SDS011;3210;48.708;9.030;2024-01-27T04:39:08;3.00;;;1.60;;
6354;SDS011;3210;48.708;9.030;2024-01-27T04:41:41;3.73;;;1.50;;
6354;SDS011;3210;48.708;9.030;2024-01-27T04:44:12;6.93;;;1.87;;
6354;SDS011;3210;48.708;9.030;2024-01-27T04:46:48;8.70;;;1.90;;
6354;SDS011;3210;48.708;9.030;2024-01-27T04:49:32;3.70;;;1.90;;
6354;SDS011;3210;48.708;9.030;2024-01-27T04:52:00;5.10;;;1.53;;
6354;SDS011;3210;48.708;9.030;2024-01-27T04:54:29;1.43;;;1.20;;
6354;SDS011;3210;48.708;9.030;2024-01-27T04:57:06;4.00;;;1.40;;
6354;SDS011;3210;48.708;9.030;2024-01-27T04:59:36;20.80;;;2.37;;
6354;SDS011;3210;48.708;9.030;2024-01-27T05:05:09;3.27;;;1.57;;
6354;SDS011;3210;48.708;9.030;2024-01-27T05:07:42;6.47;;;2.33;;
6354;SDS011;3210;48.708;9.030;2024-01-27T05:10:25;3.73;;;1.80;;
6354;SDS011;3210;48.708;9.030;2024-01-27T05:13:10;2.40;;;1.40;;
6354;SDS011;3210;48.708;9.030;2024-01-27T05:15:53;3.70;;;1.30;;
6354;SDS011;3210;48.708;9.030;2024-01-27T05:18:27;6.83;;;2.03;;
6354;SDS011;3210;48.708;9.030;2024-01-27T05:21:09;7.67;;;1.93;;
6354;SDS011;3210;48.708;9.030;2024-01-27T05:23:41;3.20;;;2.20;;
6354;SDS011;3210;48.708;9.030;2024-01-27T05:26:13;3.30;;;1.73;;
6354;SDS011;3210;48.708;9.030;2024-01-27T05:28:56;2.70;;;1.47;;
6354;SDS011;3210;48.708;9.030;2024-01-27T05:31:37;2.70;;;1.67;;
6354;SDS011;3210;48.708;9.030;2024-01-27T05:37:20;16.37;;;2.83;;
6354;SDS011;3210;48.708;9.030;2024-01-27T05:40:02;5.20;;;2.47;;
6354;SDS011;3210;48.708;9.030;2024-01-27T05:42:44;5.90;;;2.20;;
6354;SDS011;3210;48.708;9.030;2024-01-27T05:45:23;5.17;;;2.67;;
6354;SDS011;3210;48.708;9.030;2024-01-27T05:47:52;8.97;;;2.40;;
6354;SDS011;3210;48.708;9.030;2024-01-27T05:50:35;2.90;;;2.37;;
6354;SDS011;3210;48.708;9.030;2024-01-27T05:53:13;6.57;;;2.60;;
6354;SDS011;3210;48.708;9.030;2024-01-27T05:55:54;7.57;;;2.57;;
6354;SDS011;3210;48.708;9.030;2024-01-27T05:58:37;4.40;;;2.30;;
6354;SDS011;3210;48.708;9.030;2024-01-27T06:01:18;4.30;;;2.13;;
6354;SDS011;3210;48.708;9.030;2024-01-27T06:03:45;5.17;;;2.07;;
6354;SDS011;3210;48.708;9.030;2024-01-27T06:06:13;2.60;;;2.30;;
6354;SDS011;3210;48.708;9.030;2024-01-27T06:08:56;6.40;;;2.27;;
6354;SDS011;3210;48.708;9.030;2024-01-27T06:11:40;5.93;;;2.00;;
6354;SDS011;3210;48.708;9.030;2024-01-27T06:14:22;4.43;;;2.27;;
6354;SDS011;3210;48.708;9.030;2024-01-27T06:16:54;4.23;;;1.97;;
6354;SDS011;3210;48.708;9.030;2024-01-27T06:19:23;8.43;;;2.10;;
6354;SDS011;3210;48.708;9.030;2024-01-27T06:22:12;2.27;;;2.17;;
6354;SDS011;3210;48.708;9.030;2024-01-27T06:27:45;4.73;;;2.20;;
6354;SDS011;3210;48.708;9.030;2024-01-27T06:30:15;3.67;;;2.10;;
6354;SDS011;3210;48.708;9.030;2024-01-27T06:32:49;5.33;;;1.73;;
6354;SDS011;3210;48.708;9.030;2024-01-27T06:35:31;1.83;;;1.73;;
6354;SDS011;3210;48.708;9.030;2024-01-27T06:37:59;4.30;;;2.40;;
6354;SDS011;3210;48.708;9.030;2024-01-27T06:44:08;6.53;;;1.90;;
6354;SDS011;3210;48.708;9.030;2024-01-27T06:46:57;8.07;;;2.33;;
6354;SDS011;3210;48.708;9.030;2024-01-27T06:49:40;5.70;;;1.97;;
6354;SDS011;3210;48.708;9.030;2024-01-27T06:52:26;4.87;;;2.87;;
6354;SDS011;3210;48.708;9.030;2024-01-27T06:55:42;9.23;;;2.20;;
6354;SDS011;3210;48.708;9.030;2024-01-27T07:05:13;3.00;;;2.17;;
6354;SDS011;3210;48.708;9.030;2024-01-27T07:08:06;1.70;;;1.27;;
6354;SDS011;3210;48.708;9.030;2024-01-27T07:11:03;5.93;;;2.13;;
6354;SDS011;3210;48.708;9.030;2024-01-27T07:13:59;3.53;;;2.03;;
6354;SDS011;3210;48.708;9.030;2024-01-27T07:16:43;6.10;;;1.67;;
6354;SDS011;3210;48.708;9.030;2024-01-27T08:04:42;10.53;;;3.30;;
6354;SDS011;3210;48.708;9.030;2024-01-27T08:07:09;13.10;;;2.47;;
6354;SDS011;3210;48.708;9.030;2024-01-27T08:09:40;4.37;;;2.00;;
6354;SDS011;3210;48.708;9.030;2024-01-27T08:12:07;3.50;;;2.57;;
6354;SDS011;3210;48.708;9.030;2024-01-27T08:14:43;3.97;;;1.90;;
6354;SDS011;3210;48.708;9.030;2024-01-27T08:17:11;7.00;;;2.80;;
6354;SDS011;3210;48.708;9.030;2024-01-27T08:23:11;5.87;;;2.27;;
6354;SDS011;3210;48.708;9.030;2024-01-27T08:26:04;4.53;;;2.80;;
6354;SDS011;3210;48.708;9.030;2024-01-27T08:28:59;7.03;;;3.57;;
6354;SDS011;3210;48.708;9.030;2024-01-27T08:35:00;10.40;;;2.63;;
6354;SDS011;3210;48.708;9.030;2024-01-27T08:38:04;7.43;;;2.77;;
6354;SDS011;3210;48.708;9.030;2024-01-27T08:47:01;4.27;;;2.60;;
6354;SDS011;3210;48.708;9.030;2024-01-27T08:50:09;11.83;;;3.93;;
6354;SDS011;3210;48.708;9.030;2024-01-27T08:53:02;8.70;;;3.93;;
6354;SDS011;3210;48.708;9.030;2024-01-27T08:59:10;6.20;;;3.47;;
6354;SDS011;3210;48.708;9.030;2024-01-27T09:05:33;5.93;;;3.23;;
6354;SDS011;3210;48.708;9.030;2024-01-27T09:11:51;13.23;;;4.20;;
6354;SDS011;3210;48.708;9.030;2024-01-27T09:15:02;7.63;;;3.37;;
6354;SDS011;3210;48.708;9.030;2024-01-27T09:17:53;9.70;;;4.17;;
6354;SDS011;3210;48.708;9.030;2024-01-27T09:20:58;8.43;;;3.70;;
6354;SDS011;3210;48.708;9.030;2024-01-27T09:23:53;12.90;;;4.67;;
6354;SDS011;3210;48.708;9.030;2024-01-27T09:26:21;11.17;;;3.67;;
6354;SDS011;3210;48.708;9.030;2024-01-27T09:29:07;6.13;;;4.03;;
6354;SDS011;3210;48.708;9.030;2024-01-27T09:35:58;7.20;;;4.70;;
6354;SDS011;3210;48.708;9.030;2024-01-27T09:38:59;5.73;;;3.97;;
6354;SDS011;3210;48.708;9.030;2024-01-27T09:41:57;6.93;;;4.13;;
6354;SDS011;3210;48.708;9.030;2024-01-27T09:44:41;5.03;;;3.70;;
6354;SDS011;3210;48.708;9.030;2024-01-27T09:47:43;6.50;;;3.83;;
6354;SDS011;3210;48.708;9.030;2024-01-27T09:50:44;6.57;;;3.20;;
6354;SDS011;3210;48.708;9.030;2024-01-27T10:00:19;5.80;;;3.50;;
6354;SDS011;3210;48.708;9.030;2024-01-27T10:42:28;16.57;;;3.63;;
6354;SDS011;3210;48.708;9.030;2024-01-27T10:45:25;8.47;;;3.10;;
6354;SDS011;3210;48.708;9.030;2024-01-27T10:48:56;6.40;;;3.57;;
6354;SDS011;3210;48.708;9.030;2024-01-27T10:51:38;5.40;;;2.87;;
6354;SDS011;3210;48.708;9.030;2024-01-27T11:06:29;8.17;;;3.40;;
6354;SDS011;3210;48.708;9.030;2024-01-27T12:27:54;13.40;;;2.70;;
6354;SDS011;3210;48.708;9.030;2024-01-27T12:56:10;5.47;;;1.63;;
6354;SDS011;3210;48.708;9.030;2024-01-27T12:58:55;3.60;;;1.40;;
6354;SDS011;3210;48.708;9.030;2024-01-27T13:02:09;2.43;;;1.37;;
6354;SDS011;3210;48.708;9.030;2024-01-27T13:08:46;3.93;;;1.20;;
6354;SDS011;3210;48.708;9.030;2024-01-27T14:34:34;4.67;;;1.07;;
6354;SDS011;3210;48.708;9.030;2024-01-27T14:37:39;2.50;;;1.20;;
6354;SDS011;3210;48.708;9.030;2024-01-27T15:14:09;18.43;;;1.90;;
6354;SDS011;3210;48.708;9.030;2024-01-27T15:17:04;7.20;;;2.73;;
6354;SDS011;3210;48.708;9.030;2024-01-27T15:20:03;9.63;;;2.30;;
6354;SDS011;3210;48.708;9.030;2024-01-27T15:25:23;8.27;;;1.97;;
6354;SDS011;3210;48.708;9.030;2024-01-27T15:28:08;8.90;;;2.90;;
6354;SDS011;3210;48.708;9.030;2024-01-27T15:34:37;4.67;;;2.63;;
6354;SDS011;3210;48.708;9.030;2024-01-27T15:38:20;9.03;;;2.40;;
6354;SDS011;3210;48.708;9.030;2024-01-27T20:18:45;8.23;;;3.17;;
6354;SDS011;3210;48.708;9.030;2024-01-27T22:08:19;14.07;;;4.30;;
6354;SDS011;3210;48.708;9.030;2024-01-27T22:10:48;10.73;;;3.63;;
6354;SDS011;3210;48.708;9.030;2024-01-27T22:13:26;8.20;;;4.10;;
6354;SDS011;3210;48.708;9.030;2024-01-27T22:16:10;7.13;;;3.30;;
6354;SDS011;3210;48.708;9.030;2024-01-27T22:18:54;9.20;;;3.30;;
6354;SDS011;3210;48.708;9.030;2024-01-27T22:21:38;6.10;;;3.00;;
6354;SDS011;3210;48.708;9.030;2024-01-27T22:24:10;4.50;;;3.27;;
6354;SDS011;3210;48.708;9.030;2024-01-27T22:26:39;4.80;;;3.20;;
6354;SDS011;3210;48.708;9.030;2024-01-27T22:29:24;3.17;;;2.80;;
6354;SDS011;3210;48.708;9.030;2024-01-27T22:31:56;10.63;;;3.67;;
6354;SDS011;3210;48.708;9.030;2024-01-27T22:34:38;8.10;;;4.33;;
6354;SDS011;3210;48.708;9.030;2024-01-27T22:40:18;4.07;;;3.20;;
6354;SDS011;3210;48.708;9.030;2024-01-27T22:42:46;4.60;;;3.00;;
6354;SDS011;3210;48.708;9.030;2024-01-27T22:45:16;6.00;;;3.60;;
6354;SDS011;3210;48.708;9.030;2024-01-27T22:47:50;14.13;;;4.47;;
6354;SDS011;3210;48.708;9.030;2024-01-27T22:50:29;3.50;;;2.73;;
6354;SDS011;3210;48.708;9.030;2024-01-27T22:53:11;8.90;;;4.00;;
6354;SDS011;3210;48.708;9.030;2024-01-27T22:59:12;12.30;;;6.40;;
6354;SDS011;3210;48.708;9.030;2024-01-27T23:01:55;8.80;;;6.00;;
6354;SDS011;3210;48.708;9.030;2024-01-27T23:05:13;16.03;;;6.97;;
6354;SDS011;3210;48.708;9.030;2024-01-27T23:07:56;10.03;;;6.27;;
6354;SDS011;3210;48.708;9.030;2024-01-27T23:10:48;18.20;;;5.77;;
6354;SDS011;3210;48.708;9.030;2024-01-27T23:13:36;9.23;;;4.53;;
6354;SDS011;3210;48.708;9.030;2024-01-27T23:22:25;10.33;;;3.73;;
6354;SDS011;3210;48.708;9.030;2024-01-27T23:25:01;4.57;;;4.10;;
6354;SDS011;3210;48.708;9.030;2024-01-27T23:27:55;6.67;;;3.40;;
6354;SDS011;3210;48.708;9.030;2024-01-27T23:30:43;5.50;;;3.60;;
6354;SDS011;3210;48.708;9.030;2024-01-27T23:34:09;10.87;;;3.70;;
6354;SDS011;3210;48.708;9.030;2024-01-27T23:46:22;6.60;;;3.60;;
6354;SDS011;3210;48.708;9.030;2024-01-27T23:52:09;5.70;;;3.13;;
6354;SDS011;3210;48.708;9.030;2024-01-27T23:55:08;5.23;;;3.23;;
6354;SDS011;3210;48.708;9.030;2024-01-27T23:57:50;8.77;;;3.83;;
